createdAt,value
2023-01-19T08:01:17.810Z,15.56
2023-01-19T08:01:27.821Z,15.70
2023-01-19T08:01:38.042Z,15.88
2023-01-19T08:01:47.971Z,16.06
2023-01-19T08:01:58.351Z,16.27
2023-01-19T08:02:08.173Z,16.44
2023-01-19T08:02:18.149Z,16.61
2023-01-19T08:02:28.028Z,16.78
2023-01-19T08:02:38.096Z,16.92
2023-01-19T08:02:47.983Z,17.09
2023-01-19T08:02:58.205Z,17.20
2023-01-19T08:03:07.984Z,17.38
2023-01-19T08:03:17.971Z,17.51
2023-01-19T08:03:27.961Z,17.64
2023-01-19T08:03:37.936Z,17.79
2023-01-19T08:03:47.896Z,17.90
2023-01-19T08:03:57.927Z,18.07
2023-01-19T08:04:07.870Z,18.14
2023-01-19T08:04:17.836Z,18.33
2023-01-19T08:04:27.809Z,18.41
2023-01-19T08:04:37.808Z,18.54
2023-01-19T08:04:47.874Z,18.66
2023-01-19T08:04:57.723Z,18.79
2023-01-19T08:05:07.691Z,18.90
2023-01-19T08:05:17.705Z,19.03
2023-01-19T08:05:27.637Z,19.11
2023-01-19T08:05:37.571Z,19.23
2023-01-19T08:05:47.527Z,19.33
2023-01-19T08:05:57.570Z,19.45
2023-01-19T08:06:07.481Z,19.51
2023-01-19T08:06:17.467Z,19.64
2023-01-19T08:06:27.447Z,19.72
2023-01-19T08:06:37.409Z,19.78
2023-01-19T08:06:47.438Z,19.92
2023-01-19T08:06:57.350Z,19.99
2023-01-19T08:07:07.285Z,20.10
2023-01-19T08:07:17.292Z,20.16
2023-01-19T08:07:27.230Z,20.27
2023-01-19T08:07:37.169Z,20.35
2023-01-19T08:07:47.264Z,20.43
2023-01-19T08:07:57.140Z,20.52
2023-01-19T08:08:07.073Z,20.59
2023-01-19T08:08:17.096Z,20.67
2023-01-19T08:08:27.041Z,20.76
2023-01-19T08:08:37.085Z,20.80
2023-01-19T08:08:47.002Z,20.92
2023-01-19T08:08:56.931Z,20.99
2023-01-19T08:09:06.978Z,21.05
2023-01-19T08:09:16.873Z,21.13
2023-01-19T08:09:26.846Z,21.20
2023-01-19T08:09:36.845Z,21.27
2023-01-19T08:09:46.820Z,21.34
2023-01-19T08:09:56.757Z,21.41
2023-01-19T08:10:06.740Z,21.47
2023-01-19T08:10:16.708Z,21.52
2023-01-19T08:10:26.709Z,21.62
2023-01-19T08:10:36.677Z,21.65
2023-01-19T08:10:46.619Z,21.71
2023-01-19T08:10:56.654Z,21.77
2023-01-19T08:11:06.582Z,21.85
2023-01-19T08:11:16.519Z,21.89
2023-01-19T08:11:26.471Z,21.95
2023-01-19T08:11:36.477Z,22.02
2023-01-19T08:11:46.427Z,22.06
2023-01-19T08:11:56.409Z,22.12
2023-01-19T08:12:06.374Z,22.16
2023-01-19T08:12:16.347Z,22.23
2023-01-19T08:12:26.305Z,22.27
2023-01-19T08:12:36.279Z,22.34
2023-01-19T08:12:46.290Z,22.40
2023-01-19T08:12:56.319Z,22.44
2023-01-19T08:13:06.210Z,22.50
2023-01-19T08:13:16.193Z,22.54
2023-01-19T08:13:26.096Z,22.61
2023-01-19T08:13:36.087Z,22.62
2023-01-19T08:13:46.064Z,22.69
2023-01-19T08:13:56.046Z,22.72
2023-01-19T08:14:07.933Z,22.78
2023-01-19T08:14:15.934Z,22.79
2023-01-19T08:14:25.890Z,22.86
2023-01-19T08:14:35.882Z,22.91
2023-01-19T08:14:45.817Z,22.94
2023-01-19T08:14:55.846Z,22.99
2023-01-19T08:15:05.707Z,23.02
2023-01-19T08:15:15.683Z,23.05
2023-01-19T08:15:25.720Z,23.10
2023-01-19T08:15:35.624Z,23.10
2023-01-19T08:15:45.571Z,23.16
2023-01-19T08:15:55.536Z,23.20
2023-01-19T08:16:05.450Z,23.23
2023-01-19T08:16:15.422Z,23.27
2023-01-19T08:16:25.346Z,23.31
2023-01-19T08:16:35.308Z,23.34
2023-01-19T08:16:45.266Z,23.37
2023-01-19T08:16:55.214Z,23.41
2023-01-19T08:17:05.161Z,23.44
2023-01-19T08:17:15.126Z,23.47
2023-01-19T08:17:25.080Z,23.51
2023-01-19T08:17:35.006Z,23.54
2023-01-19T08:17:45.049Z,23.56
2023-01-19T08:17:54.952Z,23.61
2023-01-19T08:18:04.992Z,23.61
2023-01-19T08:18:14.828Z,23.68
2023-01-19T08:18:24.820Z,23.68
2023-01-19T08:18:34.793Z,23.67
2023-01-19T08:18:44.731Z,23.74
2023-01-19T08:18:54.718Z,23.75
2023-01-19T08:19:04.704Z,23.75
2023-01-19T08:19:14.630Z,23.78
2023-01-19T08:19:24.618Z,23.81
2023-01-19T08:19:34.553Z,23.84
2023-01-19T08:19:44.524Z,23.88
2023-01-19T08:19:54.493Z,23.89
2023-01-19T08:20:04.451Z,23.92
2023-01-19T08:20:14.444Z,23.98
2023-01-19T08:20:24.418Z,24.01
2023-01-19T08:20:34.397Z,23.99
2023-01-19T08:20:44.329Z,24.02
2023-01-19T08:20:54.263Z,24.08
2023-01-19T08:21:04.298Z,24.13
2023-01-19T08:21:14.265Z,24.15
2023-01-19T08:21:24.191Z,24.16
2023-01-19T08:21:34.184Z,24.19
2023-01-19T08:21:44.122Z,24.24
2023-01-19T08:21:54.079Z,24.27
2023-01-19T08:22:04.056Z,24.30
2023-01-19T08:22:14.026Z,24.31
2023-01-19T08:22:23.991Z,24.31
2023-01-19T08:22:34.061Z,24.37
2023-01-19T08:22:44.038Z,24.37
2023-01-19T08:22:53.976Z,24.40
2023-01-19T08:23:04.507Z,24.40
2023-01-19T08:23:13.959Z,24.44
2023-01-19T08:23:23.842Z,24.43
2023-01-19T08:23:33.798Z,24.46
2023-01-19T08:23:43.812Z,24.46
2023-01-19T08:23:53.730Z,24.48
2023-01-19T08:24:03.741Z,24.48
2023-01-19T08:24:13.664Z,24.53
2023-01-19T08:24:23.568Z,24.56
2023-01-19T08:24:33.533Z,24.51
2023-01-19T08:24:43.501Z,24.54
2023-01-19T08:24:53.422Z,24.57
2023-01-19T08:25:03.421Z,24.54
2023-01-19T08:25:13.391Z,24.57
2023-01-19T08:25:40.697Z,24.50
2023-01-19T08:25:50.702Z,24.53
2023-01-19T08:26:00.900Z,24.50
2023-01-19T08:26:10.905Z,24.54
2023-01-19T08:26:20.908Z,24.53
2023-01-19T08:26:30.951Z,24.57
2023-01-19T08:26:40.881Z,24.58
2023-01-19T08:26:50.911Z,24.58
2023-01-19T08:27:00.909Z,24.58
2023-01-19T08:27:11.468Z,24.63
2023-01-19T08:27:20.913Z,24.63
2023-01-19T08:27:30.878Z,24.63
2023-01-19T08:27:40.895Z,24.68
2023-01-19T08:27:50.921Z,24.70
2023-01-19T08:28:00.881Z,24.71
2023-01-19T08:28:10.894Z,24.72
2023-01-19T08:28:20.888Z,24.74
2023-01-19T08:28:30.969Z,24.75
2023-01-19T08:28:40.894Z,24.77
2023-01-19T08:28:50.866Z,24.78
2023-01-19T08:29:00.865Z,24.81
2023-01-19T08:29:10.865Z,24.81
2023-01-19T08:29:20.931Z,24.85
2023-01-19T08:29:30.892Z,24.85
2023-01-19T08:29:40.897Z,24.86
2023-01-19T08:29:50.920Z,24.88
2023-01-19T08:30:00.899Z,24.88
2023-01-19T08:30:10.871Z,24.88
2023-01-19T08:30:20.881Z,24.92
2023-01-19T08:30:30.872Z,24.95
2023-01-19T08:30:41.024Z,24.95
2023-01-19T08:30:50.973Z,24.96
2023-01-19T08:31:11.085Z,24.99
2023-01-19T08:31:20.456Z,24.98
2023-01-19T08:31:24.694Z,24.99
2023-01-19T08:31:31.032Z,24.99
2023-01-19T08:31:40.917Z,25.02
2023-01-19T08:31:50.938Z,25.01
2023-01-19T08:32:00.917Z,25.03
2023-01-19T08:32:10.994Z,25.03
2023-01-19T08:32:20.933Z,25.03
2023-01-19T08:32:30.921Z,25.03
2023-01-19T08:32:40.881Z,25.06
2023-01-19T08:32:50.856Z,25.08
2023-01-19T08:33:01.243Z,25.08
2023-01-19T08:33:11.115Z,25.08
2023-01-19T08:33:21.169Z,25.08
2023-01-19T08:33:31.236Z,25.08
2023-01-19T08:33:41.122Z,25.09
2023-01-19T08:33:51.176Z,25.10
2023-01-19T08:34:01.106Z,25.12
2023-01-19T08:34:11.159Z,25.12
2023-01-19T08:34:21.082Z,25.12
2023-01-19T08:34:31.128Z,25.09
2023-01-19T08:34:41.143Z,25.08
2023-01-19T08:34:51.100Z,25.10
2023-01-19T08:35:01.149Z,25.15
2023-01-19T08:35:11.146Z,25.16
2023-01-19T08:35:21.105Z,25.10
2023-01-19T08:35:31.122Z,25.13
2023-01-19T08:35:41.137Z,25.15
2023-01-19T08:35:51.094Z,25.13
2023-01-19T08:36:01.204Z,25.13
2023-01-19T08:36:11.110Z,25.12
2023-01-19T08:36:21.085Z,25.01
2023-01-19T08:36:31.118Z,25.03
2023-01-19T08:36:41.302Z,25.03
2023-01-19T08:36:51.115Z,25.09
2023-01-19T08:37:01.122Z,25.12
2023-01-19T08:37:11.152Z,25.10
2023-01-19T08:37:21.105Z,25.15
2023-01-19T08:37:32.692Z,25.16
2023-01-19T08:37:41.092Z,25.23
2023-01-19T08:37:51.118Z,25.25
2023-01-19T08:38:01.154Z,25.25
2023-01-19T08:38:11.182Z,25.26
2023-01-19T08:38:21.205Z,25.20
2023-01-19T08:38:31.137Z,25.20
2023-01-19T08:38:41.193Z,25.19
2023-01-19T08:38:51.108Z,25.16
2023-01-19T08:39:01.131Z,25.22
2023-01-19T08:39:11.076Z,25.27
2023-01-19T08:39:21.108Z,25.29
2023-01-19T08:39:31.134Z,25.32
2023-01-19T08:39:41.107Z,25.34
2023-01-19T08:39:51.117Z,25.39
2023-01-19T08:40:01.555Z,25.41
2023-01-19T08:40:11.278Z,25.44
2023-01-19T08:40:21.226Z,25.46
2023-01-19T08:40:31.242Z,25.50
2023-01-19T08:40:41.257Z,25.51
2023-01-19T08:40:51.246Z,25.53
2023-01-19T08:41:01.254Z,25.48
2023-01-19T08:41:11.210Z,25.54
2023-01-19T08:41:21.272Z,25.54
2023-01-19T08:41:31.257Z,25.58
2023-01-19T08:41:41.205Z,25.61
2023-01-19T08:41:51.225Z,25.58
2023-01-19T08:42:01.254Z,25.61
2023-01-19T08:42:11.215Z,25.63
2023-01-19T08:42:21.236Z,25.63
2023-01-19T08:42:31.247Z,25.63
2023-01-19T08:42:41.223Z,25.65
2023-01-19T08:42:51.238Z,25.64
2023-01-19T08:43:01.731Z,25.60
2023-01-19T08:43:11.199Z,25.63
2023-01-19T08:43:21.237Z,25.47
2023-01-19T08:43:31.281Z,25.53
2023-01-19T08:43:41.304Z,25.58
2023-01-19T08:43:51.257Z,25.57
2023-01-19T08:44:01.231Z,25.57
2023-01-19T08:44:11.199Z,25.60
2023-01-19T08:44:21.181Z,25.61
2023-01-19T08:44:31.197Z,25.63
2023-01-19T08:44:49.656Z,25.64
2023-01-19T08:44:58.151Z,25.61
2023-01-19T08:45:02.348Z,25.65
2023-01-19T08:45:11.207Z,25.65
2023-01-19T08:45:21.245Z,25.63
2023-01-19T08:45:31.206Z,25.57
2023-01-19T08:45:41.231Z,25.54
2023-01-19T08:45:51.280Z,25.58
2023-01-19T08:46:01.307Z,25.60
2023-01-19T08:46:11.292Z,25.51
2023-01-19T08:46:21.317Z,25.51
2023-01-19T08:46:31.248Z,25.40
2023-01-19T08:46:41.292Z,25.40
2023-01-19T08:46:51.192Z,25.46
2023-01-19T08:47:01.195Z,25.46
2023-01-19T08:47:11.258Z,25.46
2023-01-19T08:47:21.223Z,25.47
2023-01-19T08:47:31.212Z,25.48
2023-01-19T08:47:41.296Z,25.43
2023-01-19T08:47:51.233Z,25.41
